Portada
METAR-TAF:

METAR-TAF

Aeropuertos :

Yamena, Chad

Aeropuerto Internacional de Yamena

latitud: 12-08N, longitud: 015-02E, altitud: 295 m

Observación

El informe se hizo hace 1 hora y 7 minutos, a las 01:00 UTC
Viento 1 kt del norte
Temperatura 30°C
Humedad 22%
Presión 1005 hPa
Visibilidad 10 km o más
sin nubes por debajo de 1500 m y sin presencia de cumulonimbus.

METAR: FTTJ 230100Z 01001KT CAVOK 30/06 Q1005 NOSIG

Hora: 03:07 (02:07 UTC)

Pronóstico

El informe se hizo hace 3 horas y 7 minutos, a las 23:00 UTC
Pronóstico válido del 23 a las 00 UTC al 24 a las 06 UTC
Viento 4 kt del noroeste
Visibilidad: 8000 m
Temporalmente
del 23 a las 08 UTC al 23 a las 16 UTC
Viento 10 kt del oeste

TAF: FTTJ 222300Z 2300/2406 32004KT 8000 NSC TEMPO 2308/2316 26010KT

Observaciones y pronósticos meteorológicos de más de 4000 aeropuertos (mensajes METAR y TAF).

Los puntos amarillos y rojos representan las estaciones disponibles.

Ponga el ratón en el punto deseado para ver el nombre de la estación.

Haga clic para ver las observaciones y los pronósticos meteorológicos.

Para cambiar el mapa : haga clic en los botones verdes con una cruz de color negro para hacer un zoom, en el botón verde con un guión para alejar o en las flechas verdes para mapas adyacentes.


METAR-TAF: